createdAt,value
2017-06-30T00:01:00.487Z,0
2017-06-30T00:11:00.748Z,0
2017-06-30T00:21:00.406Z,0
2017-06-30T00:31:00.462Z,0
2017-06-30T00:41:00.778Z,0
2017-06-30T00:51:00.494Z,0
2017-06-30T01:01:00.463Z,0
2017-06-30T01:11:00.409Z,0
2017-06-30T01:21:00.498Z,0
2017-06-30T01:31:00.433Z,0
2017-06-30T01:41:00.412Z,0
2017-06-30T01:51:00.479Z,0
2017-06-30T02:01:00.422Z,0
2017-06-30T02:11:00.497Z,0
2017-06-30T02:21:00.489Z,0
2017-06-30T02:31:00.398Z,4
2017-06-30T02:41:00.582Z,4
2017-06-30T02:51:00.438Z,8
2017-06-30T03:01:00.497Z,24
2017-06-30T03:11:00.474Z,68
2017-06-30T03:21:00.457Z,120
2017-06-30T03:31:00.476Z,268
2017-06-30T03:41:00.434Z,484
2017-06-30T03:51:00.436Z,492
2017-06-30T04:01:00.491Z,1204
2017-06-30T04:11:00.428Z,1904
2017-06-30T04:21:00.492Z,1272
2017-06-30T04:31:00.508Z,2348
2017-06-30T04:41:00.382Z,2308
2017-06-30T04:51:00.481Z,3416
2017-06-30T05:01:00.426Z,4596
2017-06-30T05:11:00.501Z,5504
2017-06-30T05:21:00.463Z,6776
2017-06-30T05:31:00.423Z,7280
2017-06-30T05:41:00.493Z,9264
2017-06-30T05:51:00.436Z,10652
2017-06-30T06:01:00.465Z,12336
2017-06-30T06:11:00.483Z,13228
2017-06-30T06:21:00.442Z,12268
2017-06-30T06:31:00.501Z,16672
2017-06-30T06:41:00.466Z,18496
2017-06-30T06:51:00.450Z,18848
2017-06-30T07:01:00.511Z,13824
2017-06-30T07:11:01.446Z,13448
2017-06-30T07:21:00.477Z,12280
2017-06-30T07:31:00.423Z,13056
2017-06-30T07:41:00.593Z,9560
2017-06-30T07:51:00.490Z,6244
2017-06-30T08:01:02.455Z,4256
2017-06-30T08:11:00.462Z,5272
2017-06-30T08:21:00.482Z,8328
2017-06-30T08:31:00.533Z,8936
2017-06-30T08:41:00.463Z,17936
2017-06-30T08:51:00.464Z,18108
2017-06-30T09:01:00.590Z,17772
2017-06-30T09:11:00.431Z,19040
2017-06-30T09:21:00.447Z,14360
2017-06-30T09:31:00.447Z,14752
2017-06-30T09:41:00.433Z,15812
2017-06-30T09:51:00.431Z,21248
2017-06-30T10:01:00.419Z,17768
2017-06-30T10:11:00.448Z,20384
2017-06-30T10:21:00.445Z,21632
2017-06-30T10:31:00.453Z,23456
2017-06-30T10:41:00.496Z,17844
2017-06-30T10:51:00.460Z,15564
2017-06-30T11:01:00.453Z,20672
2017-06-30T11:11:00.405Z,16112
2017-06-30T11:21:00.445Z,19296
2017-06-30T11:31:00.430Z,21056
2017-06-30T11:41:00.440Z,18296
2017-06-30T11:51:00.431Z,13432
2017-06-30T12:01:00.480Z,19392
2017-06-30T12:11:00.450Z,16456
2017-06-30T12:21:00.443Z,15252
2017-06-30T12:31:00.445Z,12688
2017-06-30T12:41:00.435Z,9888
2017-06-30T12:51:00.438Z,15584
2017-06-30T13:01:00.445Z,3380
2017-06-30T13:11:00.450Z,3552
2017-06-30T13:21:00.502Z,7440
2017-06-30T13:31:00.557Z,11356
2017-06-30T13:41:00.527Z,13808
2017-06-30T13:51:00.584Z,14292
2017-06-30T14:01:00.530Z,14632
2017-06-30T14:11:00.475Z,7552
2017-06-30T14:21:00.481Z,12984
2017-06-30T14:31:00.464Z,15540
2017-06-30T14:41:00.493Z,14428
2017-06-30T14:51:00.484Z,13444
2017-06-30T15:01:00.528Z,13784
2017-06-30T15:11:00.483Z,7920
2017-06-30T15:21:00.470Z,8288
2017-06-30T15:31:00.456Z,9492
2017-06-30T15:41:00.495Z,7280
2017-06-30T15:51:00.607Z,4500
2017-06-30T16:01:00.509Z,4604
2017-06-30T16:11:00.487Z,6404
2017-06-30T16:21:00.528Z,10004
2017-06-30T16:31:00.563Z,7076
2017-06-30T16:41:00.552Z,4348
2017-06-30T16:51:00.615Z,3932
2017-06-30T17:01:00.569Z,1172
2017-06-30T17:11:00.541Z,760
2017-06-30T17:21:00.568Z,1224
2017-06-30T17:31:00.577Z,540
2017-06-30T17:41:00.636Z,1284
2017-06-30T17:51:00.475Z,1460
2017-06-30T18:01:00.498Z,812
2017-06-30T18:11:00.504Z,684
2017-06-30T18:21:00.502Z,416
2017-06-30T18:31:00.507Z,376
2017-06-30T18:41:00.502Z,320
2017-06-30T18:51:00.485Z,404
2017-06-30T19:01:00.514Z,168
2017-06-30T19:11:00.539Z,156
2017-06-30T19:21:00.491Z,116
2017-06-30T19:31:00.506Z,68
2017-06-30T19:41:00.519Z,48
2017-06-30T19:51:00.501Z,20
2017-06-30T20:01:00.507Z,8
2017-06-30T20:11:00.505Z,8
2017-06-30T20:21:00.551Z,4
2017-06-30T20:31:00.568Z,0
2017-06-30T20:41:00.487Z,0
2017-06-30T20:51:00.525Z,0
2017-06-30T21:01:00.489Z,0
2017-06-30T21:11:00.568Z,0
2017-06-30T21:21:00.533Z,0
2017-06-30T21:31:00.493Z,0
2017-06-30T21:41:00.538Z,0
2017-06-30T21:51:00.512Z,0
2017-06-30T22:01:01.629Z,0
2017-06-30T22:11:00.529Z,0
2017-06-30T22:21:00.496Z,0
2017-06-30T22:31:00.491Z,0
2017-06-30T22:41:01.543Z,0
2017-06-30T22:51:00.489Z,0
2017-06-30T23:01:00.488Z,0
2017-06-30T23:11:00.518Z,0
2017-06-30T23:21:00.492Z,0
2017-06-30T23:31:00.537Z,0
2017-06-30T23:41:00.499Z,0
2017-06-30T23:51:00.508Z,0
